Time;durP1;ratioP1;P1;durP2;ratioP2;P2;SDS_P1;SDS_P2;PMS_P1;PMS_P2;Temp;Humidity;BMP_temperature;BMP_pressure;BME280_temperature;BME280_humidity;BME280_pressure;Samples;Min_cycle;Max_cycle;Signal;HPM_P1;HPM_P2
2023/06/13 00:02:22;;;;;;;5.05;2.20;;;;;;;-144.73;39.37;54071.09;5049597;28;20036;-69
2023/06/13 00:04:51;;;;;;;7.07;1.92;;;;;;;-144.73;40.08;54079.31;5069079;28;20127;-69
2023/06/13 00:07:16;;;;;;;7.47;2.30;;;;;;;-144.73;40.46;54103.94;5068701;28;20033;-69
2023/06/13 00:09:42;;;;;;;4.75;3.05;;;;;;;-144.73;41.44;54075.22;5050959;28;20054;-68
2023/06/13 00:12:09;;;;;;;4.15;2.17;;;;;;;-144.73;40.94;54083.41;5068999;28;20464;-70
2023/06/13 00:14:35;;;;;;;4.57;1.98;;;;;;;-144.73;40.61;54050.59;5067790;28;20017;-68
2023/06/13 00:17:02;;;;;;;9.38;2.22;;;;;;;-144.73;41.09;54034.16;5054649;28;20044;-68
2023/06/13 00:19:28;;;;;;;5.55;2.75;;;;;;;-144.73;40.95;54046.47;5052192;28;20028;-68
2023/06/13 00:21:56;;;;;;;7.68;2.38;;;;;;;-144.73;41.36;54058.78;5069080;28;20032;-69
2023/06/13 00:24:22;;;;;;;6.13;2.60;;;;;;;-144.73;41.49;54103.94;5049818;28;20025;-68
2023/06/13 00:26:48;;;;;;;5.63;1.88;;;;;;;-144.73;42.07;54120.34;5068226;28;20510;-68
2023/06/13 00:29:13;;;;;;;3.80;1.77;;;;;;;-144.73;41.68;54013.63;5048840;28;20009;-68
2023/06/13 00:31:38;;;;;;;7.97;2.00;;;;;;;-144.73;42.63;54118.31;5068180;28;20115;-68
2023/06/13 00:34:04;;;;;;;7.88;2.20;;;;;;;-144.73;42.91;54050.59;5050984;28;20020;-68
2023/06/13 00:36:32;;;;;;;5.05;1.88;;;;;;;-144.73;42.92;54083.41;5050460;28;21213;-69
2023/06/13 00:38:58;;;;;;;8.70;2.03;;;;;;;-144.73;42.86;54091.63;5049628;28;20029;-69
2023/06/13 00:41:24;;;;;;;7.43;2.30;;;;;;;-144.73;43.13;54083.41;5049651;28;20025;-69
2023/06/13 00:43:49;;;;;;;5.60;2.13;;;;;;;-144.73;43.48;54071.09;5070839;28;20021;-69
2023/06/13 00:46:17;;;;;;;11.70;2.08;;;;;;;-144.73;43.37;54075.22;5056843;28;20028;-69
2023/06/13 00:48:44;;;;;;;5.95;2.42;;;;;;;-144.73;43.82;54054.69;5053319;28;20174;-69
2023/06/13 00:51:12;;;;;;;5.18;3.30;;;;;;;-144.73;43.49;54108.03;5058570;28;20032;-68
2023/06/13 00:53:39;;;;;;;4.35;2.70;;;;;;;-144.73;44.35;54071.09;5068489;28;20050;-68
2023/06/13 00:56:06;;;;;;;9.48;3.38;;;;;;;-144.73;44.93;54050.59;5049725;28;20032;-69
2023/06/13 00:58:32;;;;;;;4.45;1.98;;;;;;;-144.73;45.01;54067.00;5066428;28;20039;-69
2023/06/13 01:00:59;;;;;;;4.80;3.38;;;;;;;-144.73;45.13;54067.00;5068496;28;20024;-69
2023/06/13 01:03:25;;;;;;;5.97;3.75;;;;;;;-144.73;45.46;54091.63;5049283;28;20543;-69
2023/06/13 01:05:50;;;;;;;8.93;3.97;;;;;;;-144.73;45.35;54058.78;5068635;28;20021;-69
2023/06/13 01:08:22;;;;;;;5.38;2.60;;;;;;;-144.73;46.23;54091.63;5068384;28;20032;-69
2023/06/13 01:11:02;;;;;;;12.95;2.28;;;;;;;-144.73;46.57;54058.78;5068631;28;20024;-69
2023/06/13 01:13:47;;;;;;;7.22;2.25;;;;;;;-144.73;46.28;54071.09;5068351;28;20029;-69
2023/06/13 01:16:28;;;;;;;7.07;2.15;;;;;;;-144.73;46.93;54089.56;5048224;28;20104;-69
2023/06/13 01:18:58;;;;;;;10.15;2.33;;;;;;;-144.73;46.90;54087.53;5066207;28;20036;-69
2023/06/13 01:21:26;;;;;;;7.18;1.95;;;;;;;-144.73;47.71;54079.31;5049736;28;20445;-69
2023/06/13 01:24:00;;;;;;;4.43;1.88;;;;;;;-144.73;47.89;54034.16;5050868;28;20490;-69
2023/06/13 01:26:45;;;;;;;3.65;2.13;;;;;;;-144.73;48.25;54075.22;5049129;28;20028;-69
2023/06/13 01:29:12;;;;;;;4.88;1.80;;;;;;;-144.73;48.21;54083.41;5048412;28;20040;-68
2023/06/13 01:31:39;;;;;;;4.55;2.00;;;;;;;-144.73;48.64;54089.56;5049747;28;20163;-69
2023/06/13 01:34:05;;;;;;;4.28;2.10;;;;;;;-144.73;48.95;54060.84;5049805;28;20017;-69
2023/06/13 01:36:31;;;;;;;4.43;1.90;;;;;;;-144.73;49.33;54075.22;5046022;28;20044;-69
2023/06/13 01:38:56;;;;;;;10.90;2.42;;;;;;;-144.73;49.74;54079.31;5050829;28;20032;-69
2023/06/13 01:41:22;;;;;;;10.38;2.92;;;;;;;-144.73;50.23;54050.59;5068418;28;20025;-69
2023/06/13 01:43:47;;;;;;;6.45;2.13;;;;;;;-144.73;50.49;54067.00;5049987;28;20041;-69
2023/06/13 01:46:27;;;;;;;9.07;2.22;;;;;;;-144.73;50.98;54042.38;5047952;28;20017;-69
2023/06/13 01:48:57;;;;;;;5.40;2.13;;;;;;;-144.73;51.24;54034.16;5047545;28;20561;-69
2023/06/13 01:51:44;;;;;;;9.68;2.60;;;;;;;-144.73;51.40;54067.00;5070450;28;20091;-69
2023/06/13 01:54:11;;;;;;;4.80;2.40;;;;;;;-144.73;51.76;54091.63;5071304;28;20020;-69
2023/06/13 01:56:39;;;;;;;5.32;1.90;;;;;;;-144.73;52.42;54067.00;5071269;28;20040;-69
2023/06/13 01:59:10;;;;;;;8.82;2.20;;;;;;;-144.73;52.16;54067.00;5053859;28;20029;-69
2023/06/13 02:01:41;;;;;;;3.28;1.95;;;;;;;-144.73;52.25;54062.91;5052512;28;20090;-69
2023/06/13 02:04:07;;;;;;;7.40;2.10;;;;;;;-144.73;52.52;54062.91;5053879;28;20410;-68
2023/06/13 02:06:33;;;;;;;6.70;2.28;;;;;;;-144.73;52.93;54095.72;5047422;28;20016;-69
2023/06/13 02:09:01;;;;;;;9.68;2.33;;;;;;;-144.73;53.09;54087.53;5054125;28;20074;-69
2023/06/13 02:11:27;;;;;;;4.63;2.10;;;;;;;-144.73;53.35;54050.59;5070739;28;20112;-68
2023/06/13 02:13:52;;;;;;;4.70;2.05;;;;;;;-144.73;54.28;54062.91;5071144;28;20107;-68
2023/06/13 02:16:18;;;;;;;5.05;2.22;;;;;;;-144.73;53.78;54042.38;5071461;28;20066;-69
2023/06/13 02:18:47;;;;;;;4.68;2.00;;;;;;;-144.73;54.27;54046.47;5070815;28;20036;-69
2023/06/13 02:21:13;;;;;;;6.22;2.00;;;;;;;-144.73;55.24;54075.22;5071477;28;20016;-68
2023/06/13 02:23:38;;;;;;;5.05;2.08;;;;;;;-144.73;55.63;54062.91;5052385;28;20052;-68
2023/06/13 02:26:05;;;;;;;12.13;2.65;;;;;;;-144.73;56.56;54034.16;5071083;28;20025;-69
2023/06/13 02:28:30;;;;;;;8.00;2.60;;;;;;;-144.73;58.79;54056.75;5070983;28;20020;-68
2023/06/13 02:30:55;;;;;;;6.10;2.33;;;;;;;-144.73;58.85;54019.78;5050791;28;20036;-69
2023/06/13 02:33:21;;;;;;;9.93;2.45;;;;;;;-144.73;59.37;54038.25;5052529;28;20047;-69
2023/06/13 02:35:46;;;;;;;8.70;2.33;;;;;;;-144.73;59.62;54091.63;5050228;28;20033;-69
2023/06/13 02:38:11;;;;;;;4.53;1.73;;;;;;;-144.73;60.59;54046.47;5052705;28;20037;-69
2023/06/13 02:40:40;;;;;;;4.70;2.50;;;;;;;-144.73;61.84;54062.91;5052991;28;20040;-69
2023/06/13 02:43:06;;;;;;;5.20;2.60;;;;;;;-144.73;63.17;54058.78;5050598;28;20037;-69
2023/06/13 02:45:32;;;;;;;4.53;2.20;;;;;;;-144.73;62.74;54054.69;5061516;28;20031;-69
2023/06/13 02:47:57;;;;;;;4.00;2.35;;;;;;;-144.73;63.66;54017.75;5067364;28;20040;-69
2023/06/13 02:50:23;;;;;;;6.15;2.47;;;;;;;-144.73;65.46;54075.22;5066592;28;20029;-69
2023/06/13 02:52:48;;;;;;;10.10;3.15;;;;;;;-144.73;66.79;54087.53;5070730;28;20040;-69
2023/06/13 02:55:14;;;;;;;6.45;2.25;;;;;;;-144.73;67.49;54071.09;5052717;28;20460;-69
2023/06/13 02:57:40;;;;;;;4.63;2.63;;;;;;;-144.73;68.77;54079.31;5070044;28;20135;-69
2023/06/13 03:00:08;;;;;;;5.18;2.63;;;;;;;-144.73;68.98;54145.00;5070548;28;20028;-69
2023/06/13 03:02:36;;;;;;;12.68;3.20;;;;;;;-144.73;69.60;54085.47;5067456;28;20107;-69
2023/06/13 03:05:07;;;;;;;14.13;3.17;;;;;;;-144.73;70.77;54038.25;5053075;28;20028;-69
2023/06/13 03:07:33;;;;;;;12.13;2.45;;;;;;;-144.73;71.18;54067.00;5052582;28;20535;-69
2023/06/13 03:10:06;;;;;;;7.75;2.72;;;;;;;-144.73;71.73;54069.06;5052097;28;20116;-69
2023/06/13 03:12:31;;;;;;;10.95;3.10;;;;;;;-144.73;72.67;54054.69;5068557;28;20505;-69
2023/06/13 03:14:57;;;;;;;6.18;2.13;;;;;;;-144.73;72.87;54046.47;5070484;28;20095;-69
2023/06/13 03:17:23;;;;;;;14.10;2.67;;;;;;;-144.73;74.89;54058.78;5050602;28;20035;-69
2023/06/13 03:19:48;;;;;;;5.85;2.72;;;;;;;-144.73;75.29;54067.00;5052644;28;20036;-69
2023/06/13 03:22:14;;;;;;;10.00;3.05;;;;;;;-144.73;75.86;54108.03;5069759;28;20108;-69
2023/06/13 03:24:44;;;;;;;8.23;2.75;;;;;;;-144.73;75.96;54050.59;5052908;28;20063;-69
2023/06/13 03:27:12;;;;;;;5.88;3.05;;;;;;;-144.73;77.51;54116.25;5051703;28;20399;-69
2023/06/13 03:29:38;;;;;;;4.30;2.33;;;;;;;-144.73;78.34;54079.31;5051461;28;20096;-69
2023/06/13 03:32:04;;;;;;;11.35;2.80;;;;;;;-144.73;79.44;54079.31;5069687;28;20035;-69
2023/06/13 03:34:31;;;;;;;7.88;3.10;;;;;;;-144.73;79.73;54058.78;5052343;28;20020;-69
2023/06/13 03:36:56;;;;;;;10.38;2.58;;;;;;;-144.73;80.07;54042.38;5048644;28;20033;-68
2023/06/13 03:39:22;;;;;;;8.75;2.70;;;;;;;-144.73;80.42;54054.69;5069750;28;20054;-68
2023/06/13 03:41:47;;;;;;;6.93;2.90;;;;;;;-144.73;82.06;54099.84;5053855;28;20033;-68
2023/06/13 03:44:12;;;;;;;8.45;2.92;;;;;;;-144.73;81.88;54062.91;5070341;28;20048;-69
2023/06/13 03:46:38;;;;;;;5.57;3.03;;;;;;;-144.73;83.43;54056.75;5067381;28;20056;-68
2023/06/13 03:49:03;;;;;;;5.85;3.05;;;;;;;-144.73;84.65;54052.63;5067226;28;20031;-69
2023/06/13 03:51:28;;;;;;;5.63;2.50;;;;;;;-144.73;86.87;54108.03;5051038;28;20032;-68
2023/06/13 03:53:54;;;;;;;8.30;2.90;;;;;;;-144.73;86.00;54038.25;5051810;28;20463;-68
2023/06/13 03:56:19;;;;;;;10.57;2.85;;;;;;;-144.73;86.70;54050.59;5051690;28;20021;-68
2023/06/13 03:58:45;;;;;;;12.88;3.00;;;;;;;-144.73;86.35;54062.91;5051169;28;20039;-69
2023/06/13 04:01:10;;;;;;;12.57;2.83;;;;;;;-144.73;87.08;54054.69;5051491;28;20024;-71
2023/06/13 04:03:39;;;;;;;6.20;3.78;;;;;;;-144.73;87.83;54087.53;5068913;28;20056;-69
2023/06/13 04:06:08;;;;;;;6.03;2.80;;;;;;;-144.73;88.12;54087.53;5067724;28;20024;-69
2023/06/13 04:08:35;;;;;;;14.60;3.05;;;;;;;-144.73;88.23;54058.78;5051886;28;20043;-69
2023/06/13 04:11:01;;;;;;;8.48;2.65;;;;;;;-144.73;89.34;54042.38;5060431;28;20058;-69
2023/06/13 04:13:27;;;;;;;14.93;3.50;;;;;;;-144.73;88.39;54052.63;5048799;28;20032;-69
2023/06/13 04:15:52;;;;;;;13.57;3.00;;;;;;;-144.73;88.98;54083.41;5051384;28;20035;-69
2023/06/13 04:18:18;;;;;;;4.10;2.47;;;;;;;-144.73;89.47;54116.25;5050281;28;20047;-69
2023/06/13 04:20:44;;;;;;;5.53;3.00;;;;;;;-144.73;90.32;54071.09;5050617;28;20081;-68
2023/06/13 04:23:10;;;;;;;5.78;2.70;;;;;;;-144.73;89.76;54062.91;5067922;28;20036;-68
2023/06/13 04:25:35;;;;;;;11.10;3.33;;;;;;;-144.73;90.68;54054.69;5050355;28;20017;-68
2023/06/13 04:28:02;;;;;;;16.52;4.15;;;;;;;-144.73;90.83;54093.69;5050076;28;20036;-69
2023/06/13 04:30:28;;;;;;;7.50;2.90;;;;;;;-144.73;92.38;54073.16;5068634;28;20039;-68
2023/06/13 04:32:56;;;;;;;12.63;3.50;;;;;;;-144.73;93.25;54087.53;5050742;28;20028;-68
2023/06/13 04:35:22;;;;;;;9.52;3.28;;;;;;;-144.73;92.40;54062.91;5067806;28;20024;-69
2023/06/13 04:37:48;;;;;;;10.63;3.47;;;;;;;-144.73;91.02;54067.00;5068362;28;20086;-70
2023/06/13 04:40:14;;;;;;;5.75;3.08;;;;;;;-144.73;90.51;54108.03;5049867;28;20472;-70
2023/06/13 04:42:47;;;;;;;12.13;3.50;;;;;;;-144.73;91.44;54081.38;5068487;28;20040;-70
2023/06/13 04:45:13;;;;;;;9.15;3.13;;;;;;;-144.73;93.63;54062.91;5050721;28;20400;-69
2023/06/13 04:47:39;;;;;;;7.22;3.03;;;;;;;-144.73;92.23;54091.63;5049570;28;20048;-70
2023/06/13 04:50:06;;;;;;;7.22;3.28;;;;;;;-144.73;92.69;54079.31;5051331;28;20067;-70
2023/06/13 04:52:32;;;;;;;8.70;2.70;;;;;;;-144.73;93.84;54095.72;5048823;28;20026;-70
2023/06/13 04:55:02;;;;;;;11.57;3.13;;;;;;;-144.73;94.93;54075.22;5068980;28;20100;-70
2023/06/13 04:57:28;;;;;;;7.35;3.10;;;;;;;-144.73;95.28;54106.00;5067767;28;20111;-70
2023/06/13 04:59:58;;;;;;;13.27;3.50;;;;;;;-144.73;93.82;54034.16;5050850;28;20046;-70
2023/06/13 05:02:25;;;;;;;11.55;3.58;;;;;;;-144.73;93.37;54038.25;5050344;28;20052;-70
2023/06/13 05:04:52;;;;;;;22.13;3.72;;;;;;;-144.73;93.15;54079.31;5052772;28;20020;-68
2023/06/13 05:07:19;;;;;;;8.85;3.13;;;;;;;-144.73;92.44;54126.53;5062370;28;20040;-71
2023/06/13 05:09:45;;;;;;;8.38;3.75;;;;;;;-144.73;92.46;54097.78;5062092;28;20024;-68
2023/06/13 05:12:12;;;;;;;11.88;3.22;;;;;;;-144.73;94.11;54071.09;5065261;28;20051;-68
2023/06/13 05:14:40;;;;;;;12.57;3.05;;;;;;;-144.73;96.32;54103.94;5050192;28;20020;-70
2023/06/13 05:17:06;;;;;;;8.57;2.88;;;;;;;-144.73;95.13;54108.03;5067749;28;20036;-68
2023/06/13 05:19:34;;;;;;;9.90;3.25;;;;;;;-144.73;95.28;54083.41;5066331;28;20024;-69
2023/06/13 05:22:02;;;;;;;10.13;3.55;;;;;;;-144.73;96.47;54095.72;5049951;28;20036;-69
2023/06/13 05:24:28;;;;;;;7.50;3.35;;;;;;;-144.73;97.97;54116.25;5068419;28;20012;-69
2023/06/13 05:26:53;;;;;;;8.73;3.40;;;;;;;-144.73;98.59;54087.53;5071760;28;20396;-69
2023/06/13 05:29:18;;;;;;;15.93;3.33;;;;;;;-144.73;99.17;54085.47;5054412;28;20032;-69
2023/06/13 05:31:44;;;;;;;7.57;3.53;;;;;;;-144.73;99.21;54095.72;5071330;28;20040;-69
2023/06/13 05:34:09;;;;;;;10.98;3.42;;;;;;;-144.73;99.65;54081.38;5071530;28;20027;-69
2023/06/13 05:36:34;;;;;;;11.43;3.83;;;;;;;-144.73;99.36;54108.03;5053547;28;20012;-69
2023/06/13 05:39:01;;;;;;;11.80;3.92;;;;;;;-144.73;99.40;54116.25;5051145;28;20067;-69
2023/06/13 05:41:26;;;;;;;9.38;3.20;;;;;;;-144.73;98.01;54093.69;5053625;28;20032;-69
2023/06/13 05:43:52;;;;;;;13.77;3.58;;;;;;;-144.73;98.00;54075.22;5076262;28;20024;-70
2023/06/13 05:46:17;;;;;;;7.85;3.10;;;;;;;-144.73;97.86;54083.41;5051029;28;20020;-70
2023/06/13 05:48:43;;;;;;;11.05;3.47;;;;;;;-144.73;97.96;54091.63;5051998;28;20036;-70
2023/06/13 05:51:08;;;;;;;8.55;2.90;;;;;;;-144.73;97.21;54071.09;5063570;28;20055;-70
2023/06/13 05:53:34;;;;;;;13.50;2.80;;;;;;;-144.73;98.32;54103.94;5071592;28;20032;-70
2023/06/13 05:55:59;;;;;;;10.80;2.85;;;;;;;-144.73;97.21;54067.00;5050711;28;20043;-69
2023/06/13 05:58:25;;;;;;;9.07;3.40;;;;;;;-144.73;97.90;54116.25;5052943;28;20384;-70
2023/06/13 06:00:52;;;;;;;10.50;3.03;;;;;;;-144.73;95.75;54124.47;5054086;28;20032;-69
2023/06/13 06:03:18;;;;;;;14.57;3.70;;;;;;;-144.73;94.38;54116.25;5059544;28;20495;-70
2023/06/13 06:05:43;;;;;;;8.60;3.42;;;;;;;-144.73;93.46;54128.56;5052802;28;20033;-70
2023/06/13 06:08:09;;;;;;;27.13;14.15;;;;;;;-144.73;91.81;54079.31;5048925;28;20090;-70
2023/06/13 06:10:34;;;;;;;6.57;2.88;;;;;;;-144.73;89.99;54099.84;5070101;28;20054;-70
2023/06/13 06:13:00;;;;;;;15.85;3.17;;;;;;;-144.73;88.91;54075.22;5056095;28;20059;-69
2023/06/13 06:15:25;;;;;;;12.68;3.10;;;;;;;-144.73;88.61;54062.91;5071370;28;20111;-70
2023/06/13 06:17:50;;;;;;;12.35;3.03;;;;;;;-144.73;85.86;54103.94;5052686;28;20037;-70
2023/06/13 06:20:16;;;;;;;13.45;3.00;;;;;;;-144.73;86.07;54075.22;5053458;28;20107;-70
2023/06/13 06:22:42;;;;;;;8.43;2.47;;;;;;;-144.73;84.70;54120.34;5052619;28;20021;-70
2023/06/13 06:25:12;;;;;;;10.75;2.97;;;;;;;-144.73;84.72;54062.91;5052915;28;20052;-70
2023/06/13 06:27:38;;;;;;;13.50;2.67;;;;;;;-144.73;78.79;54126.53;5051624;28;20037;-71
2023/06/13 06:30:04;;;;;;;10.90;3.75;;;;;;;-144.73;77.07;54075.22;5045131;28;20029;-72
2023/06/13 06:32:30;;;;;;;16.50;3.08;;;;;;;-144.73;74.55;54095.72;5069837;28;20025;-72
2023/06/13 06:34:55;;;;;;;10.45;2.95;;;;;;;-144.73;73.47;54099.84;5070502;28;20088;-72
2023/06/13 06:37:21;;;;;;;12.02;3.15;;;;;;;-144.73;73.09;54062.91;5050548;28;20047;-72
2023/06/13 06:39:46;;;;;;;7.82;2.60;;;;;;;-144.73;74.20;54030.06;5048346;28;20021;-72
2023/06/13 06:42:11;;;;;;;9.82;2.65;;;;;;;-144.73;72.12;54077.25;5050327;28;20558;-72
2023/06/13 06:44:37;;;;;;;11.73;2.88;;;;;;;-144.73;70.67;54083.41;5050288;28;20025;-72
2023/06/13 06:47:02;;;;;;;16.10;3.83;;;;;;;-144.73;69.90;54083.41;5050381;28;20043;-72
2023/06/13 06:49:27;;;;;;;15.82;2.75;;;;;;;-144.73;70.82;54071.09;5050619;28;20029;-72
2023/06/13 06:51:53;;;;;;;9.52;2.78;;;;;;;-144.73;70.06;54087.53;5068772;28;20041;-72
2023/06/13 06:54:18;;;;;;;7.93;2.80;;;;;;;-144.73;67.95;54062.91;5068641;28;20029;-72
2023/06/13 06:56:44;;;;;;;13.23;2.58;;;;;;;-144.73;69.58;54060.84;5050218;28;20047;-72
2023/06/13 06:59:09;;;;;;;12.98;2.45;;;;;;;-144.73;67.80;54058.78;5051081;28;20016;-72
2023/06/13 07:01:35;;;;;;;7.15;2.85;;;;;;;-144.73;67.57;54042.38;5068125;28;20020;-71
2023/06/13 07:04:02;;;;;;;13.45;3.58;;;;;;;-144.73;68.27;54046.47;5059125;28;20078;-71
2023/06/13 07:06:28;;;;;;;15.88;2.50;;;;;;;-144.73;67.74;54099.84;5068775;28;20383;-72
2023/06/13 07:08:53;;;;;;;15.18;2.95;;;;;;;-144.73;68.98;54087.53;5051559;28;20012;-71
2023/06/13 07:11:19;;;;;;;15.30;3.50;;;;;;;-144.73;68.41;54095.72;5041884;28;20025;-71
2023/06/13 07:13:44;;;;;;;13.85;2.78;;;;;;;-144.73;68.26;54099.84;5051114;28;20104;-71
2023/06/13 07:16:09;;;;;;;10.05;2.47;;;;;;;-144.73;69.01;54087.53;5050983;28;20128;-71
2023/06/13 07:18:35;;;;;;;17.50;3.60;;;;;;;-144.73;66.92;54062.91;5068268;28;20038;-71
2023/06/13 07:21:00;;;;;;;8.52;2.85;;;;;;;-144.73;67.06;54083.41;5050717;28;20514;-71
2023/06/13 07:23:26;;;;;;;12.88;2.35;;;;;;;-144.73;67.91;54091.63;5049631;28;20060;-71
2023/06/13 07:25:51;;;;;;;9.70;3.25;;;;;;;-144.73;66.79;54071.09;5068680;28;20100;-71
2023/06/13 07:28:16;;;;;;;7.65;3.60;;;;;;;-144.73;66.99;54054.69;5050733;28;20119;-77
2023/06/13 07:30:41;;;;;;;16.70;2.72;;;;;;;-144.73;66.43;54050.59;5056539;28;20016;-77
2023/06/13 07:33:07;;;;;;;17.00;2.78;;;;;;;-144.73;65.53;54038.25;5065516;28;20385;-75
2023/06/13 07:35:32;;;;;;;12.77;2.63;;;;;;;-144.73;64.24;54042.38;5054305;28;20047;-77
2023/06/13 07:37:58;;;;;;;6.90;2.40;;;;;;;-144.73;62.15;54056.75;5055431;28;20082;-76
2023/06/13 07:40:24;;;;;;;15.35;2.28;;;;;;;-144.73;61.77;54075.22;5074078;28;20025;-76
2023/06/13 07:42:50;;;;;;;11.30;2.30;;;;;;;-144.73;59.71;54042.38;5056227;28;20037;-77
2023/06/13 07:45:15;;;;;;;11.38;2.70;;;;;;;-144.73;59.47;54017.75;5056780;28;20017;-77
2023/06/13 07:47:40;;;;;;;12.55;2.60;;;;;;;-144.73;58.17;54044.44;5056295;28;20044;-77
2023/06/13 07:50:06;;;;;;;14.18;2.33;;;;;;;-144.73;54.68;54042.38;5053662;28;20028;-77
2023/06/13 07:52:32;;;;;;;12.73;3.05;;;;;;;-144.73;55.09;54058.78;5075983;28;20033;-77
2023/06/13 07:54:57;;;;;;;17.65;2.25;;;;;;;-144.73;54.37;54030.06;5055508;28;20118;-77
2023/06/13 07:57:23;;;;;;;7.80;2.33;;;;;;;-144.73;53.12;54046.47;5073426;28;20028;-76
2023/06/13 07:59:48;;;;;;;7.05;2.25;;;;;;;-144.73;54.42;54075.22;5077748;28;20031;-77
2023/06/13 08:02:14;;;;;;;11.45;2.50;;;;;;;-144.73;53.98;54030.06;5058934;28;20036;-77
2023/06/13 08:04:39;;;;;;;11.73;2.75;;;;;;;-144.73;52.79;54046.47;5076342;28;20017;-77
2023/06/13 08:07:05;;;;;;;7.55;2.42;;;;;;;-144.73;52.08;54003.38;5056283;28;20112;-77
2023/06/13 08:09:30;;;;;;;7.80;2.30;;;;;;;-144.73;50.78;54038.25;5059814;28;20017;-77
2023/06/13 08:11:58;;;;;;;6.82;2.63;;;;;;;-144.73;51.21;54013.63;5050132;28;20094;-76
2023/06/13 08:14:23;;;;;;;11.55;2.60;;;;;;;-144.73;50.64;54079.31;5050228;28;20043;-77
2023/06/13 08:16:48;;;;;;;7.90;2.75;;;;;;;-144.73;48.94;54034.16;5050381;28;20060;-77
2023/06/13 08:19:14;;;;;;;11.45;3.60;;;;;;;-144.73;50.18;54005.44;5055723;28;20028;-77
2023/06/13 08:21:39;;;;;;;10.02;3.33;;;;;;;-144.73;50.14;54030.06;5061321;28;20016;-77
2023/06/13 08:24:05;;;;;;;11.00;2.95;;;;;;;-144.73;50.27;54025.94;5064061;28;20020;-76
2023/06/13 08:26:32;;;;;;;13.13;2.92;;;;;;;-144.73;48.79;54036.22;5060149;28;20020;-77
2023/06/13 08:29:01;;;;;;;14.35;2.95;;;;;;;-144.73;48.38;53956.19;5061672;28;20020;-77
2023/06/13 08:31:27;;;;;;;10.13;3.30;;;;;;;-144.73;46.66;54021.84;5049159;28;20056;-77
2023/06/13 08:33:55;;;;;;;20.60;2.72;;;;;;;-144.73;48.67;54079.31;5050986;28;20044;-77
2023/06/13 08:36:25;;;;;;;13.02;2.33;;;;;;;-144.73;48.25;54021.84;5068786;28;20028;-77
2023/06/13 08:38:51;;;;;;;11.02;2.30;;;;;;;-144.73;48.01;54021.84;5044496;28;20041;-77
2023/06/13 08:41:16;;;;;;;12.95;2.83;;;;;;;-144.73;48.56;54058.78;5072704;28;20082;-77
2023/06/13 08:43:42;;;;;;;13.40;2.80;;;;;;;-144.73;48.46;54050.59;5061520;28;20028;-77
2023/06/13 08:46:08;;;;;;;14.23;3.00;;;;;;;-144.73;49.92;54032.13;5058874;28;20118;-77
2023/06/13 08:48:33;;;;;;;13.20;2.70;;;;;;;-144.73;48.67;54017.75;5071299;28;20025;-76
2023/06/13 08:51:04;;;;;;;12.60;2.78;;;;;;;-144.73;49.03;54032.13;5050698;28;20052;-77
2023/06/13 08:53:32;;;;;;;14.37;2.43;;;;;;;-144.73;47.86;54017.75;5049259;28;20468;-77
2023/06/13 08:56:03;;;;;;;13.73;2.90;;;;;;;-144.73;46.66;54040.31;5046671;28;20264;-76
2023/06/13 08:58:35;;;;;;;13.50;2.75;;;;;;;-144.73;45.16;54030.06;5049689;28;20058;-77
2023/06/13 09:01:02;;;;;;;;;;;;;;;-144.73;45.90;54030.06;5050992;28;20032;-76
2023/06/13 09:03:29;;;;;;;15.43;2.42;;;;;;;-144.73;45.99;54021.84;5053846;28;19924;-77
2023/06/13 09:05:55;;;;;;;12.27;2.83;;;;;;;-144.73;45.97;54021.84;5055519;28;20028;-77
2023/06/13 09:08:21;;;;;;;10.93;2.20;;;;;;;-144.73;44.97;54013.63;5055169;28;20094;-77
2023/06/13 09:10:47;;;;;;;5.28;3.22;;;;;;;-144.73;43.69;53995.16;5051333;28;20020;-77
2023/06/13 09:13:15;;;;;;;12.55;2.70;;;;;;;-144.73;44.10;54034.16;5054567;28;20063;-77
2023/06/13 09:15:42;;;;;;;4.50;2.40;;;;;;;-144.73;44.72;53997.22;5054819;28;20032;-76
2023/06/13 09:18:08;;;;;;;6.07;2.00;;;;;;;-144.73;42.73;53980.81;5072442;28;20037;-77
2023/06/13 09:20:34;;;;;;;5.82;2.33;;;;;;;-144.73;43.53;54021.84;5053595;28;20020;-77
2023/06/13 09:23:00;;;;;;;12.27;2.45;;;;;;;-144.73;42.46;53982.84;5053946;28;20025;-77
2023/06/13 09:25:29;;;;;;;8.25;2.47;;;;;;;-144.73;42.12;54042.38;5054585;28;20029;-76
2023/06/13 09:27:55;;;;;;;11.68;2.20;;;;;;;-144.73;42.52;54025.94;5054065;28;20119;-77
2023/06/13 09:30:20;;;;;;;8.15;2.72;;;;;;;-144.73;41.49;54001.31;5054455;28;20103;-75
2023/06/13 09:32:49;;;;;;;11.32;3.42;;;;;;;-144.73;40.96;54046.47;5056015;28;20043;-76
2023/06/13 09:35:17;;;;;;;10.80;3.03;;;;;;;-144.73;40.38;54013.63;5072677;28;20055;-77
2023/06/13 09:37:42;;;;;;;11.65;3.05;;;;;;;-144.73;39.43;54001.31;5071965;28;20056;-76
2023/06/13 09:40:09;;;;;;;14.52;2.85;;;;;;;-144.73;40.55;54028.00;5072408;28;20028;-77
2023/06/13 09:42:35;;;;;;;17.27;3.20;;;;;;;-144.73;40.90;54013.63;5082283;28;20044;-78
2023/06/13 09:45:08;;;;;;;12.23;2.90;;;;;;;-144.73;40.85;53993.13;5058828;28;20032;-77
2023/06/13 09:47:34;;;;;;;19.85;2.92;;;;;;;-144.73;39.99;54079.31;5051942;28;20025;-78
2023/06/13 09:50:01;;;;;;;8.95;2.70;;;;;;;-144.73;38.23;53984.91;5082947;28;20044;-78
2023/06/13 09:52:30;;;;;;;12.98;3.15;;;;;;;-144.73;38.08;54013.63;5074201;28;20041;-78
2023/06/13 09:54:56;;;;;;;14.15;3.35;;;;;;;-144.73;37.41;53984.91;5061011;28;20074;-77
2023/06/13 09:57:22;;;;;;;26.73;3.17;;;;;;;-144.73;37.57;53982.84;5066721;28;20514;-78
2023/06/13 09:59:50;;;;;;;12.10;3.15;;;;;;;-144.73;36.89;53997.22;5069069;28;20028;-78
2023/06/13 10:02:16;;;;;;;10.10;2.70;;;;;;;-144.73;36.70;53943.88;5083276;28;20035;-78
2023/06/13 10:04:42;;;;;;;6.82;3.05;;;;;;;-144.73;37.81;53989.00;5051532;28;20039;-78
2023/06/13 10:07:08;;;;;;;14.10;2.95;;;;;;;-144.73;38.88;54036.22;5060103;28;20041;-77
2023/06/13 10:09:33;;;;;;;8.38;3.20;;;;;;;-144.73;38.19;53984.91;5073009;28;20115;-78
2023/06/13 10:12:00;;;;;;;9.75;3.13;;;;;;;-144.73;39.35;53970.53;5066364;28;20146;-77
2023/06/13 10:14:27;;;;;;;10.35;3.22;;;;;;;-144.73;39.69;54015.69;5057764;28;20020;-78
2023/06/13 10:17:05;;;;;;;7.70;2.67;;;;;;;-144.73;39.82;54013.63;5061759;28;20104;-77
2023/06/13 10:19:33;;;;;;;9.38;2.53;;;;;;;-144.73;38.36;53993.13;5065245;28;20047;-77
2023/06/13 10:22:00;;;;;;;16.30;3.17;;;;;;;-144.73;39.59;53982.84;5055344;28;20060;-78
2023/06/13 10:24:26;;;;;;;16.58;4.80;;;;;;;-144.73;38.31;54013.63;5063909;28;20051;-77
2023/06/13 10:26:56;;;;;;;10.18;3.08;;;;;;;-144.73;37.88;54001.31;5081388;28;20047;-78
2023/06/13 10:29:51;;;;;;;9.38;3.45;;;;;;;-144.73;37.82;54013.63;5081163;28;20040;-77
2023/06/13 10:32:44;;;;;;;6.60;2.95;;;;;;;-144.73;39.13;53974.66;5078915;28;20044;-78
2023/06/13 10:35:44;;;;;;;9.65;3.15;;;;;;;-144.73;38.41;54001.31;5063171;28;20177;-78
2023/06/13 10:38:38;;;;;;;16.83;3.22;;;;;;;-144.73;38.08;53995.16;5059476;28;20029;-77
2023/06/13 10:41:30;;;;;;;10.07;3.13;;;;;;;-144.73;36.91;54079.31;5055119;28;20021;-78
2023/06/13 10:44:04;;;;;;;24.33;3.72;;;;;;;-144.73;36.09;53970.53;5056845;28;20090;-77
2023/06/13 10:46:32;;;;;;;7.90;2.67;;;;;;;-144.73;37.70;53997.22;5062111;28;20043;-78
2023/06/13 10:49:00;;;;;;;8.23;3.15;;;;;;;-144.73;37.34;54013.63;5057963;28;20028;-77
2023/06/13 10:51:26;;;;;;;27.65;4.35;;;;;;;-144.73;38.12;54013.63;5062792;28;20519;-77
2023/06/13 10:54:11;;;;;;;15.80;3.40;;;;;;;-144.73;38.28;54021.84;5081852;28;20114;-78
2023/06/13 10:56:39;;;;;;;14.65;2.92;;;;;;;-144.73;38.83;54021.84;5079156;28;20062;-77
2023/06/13 10:59:09;;;;;;;7.65;3.00;;;;;;;-144.73;37.59;54075.22;5080833;28;20170;-77
2023/06/13 11:01:36;;;;;;;23.05;3.30;;;;;;;-144.73;36.12;53964.38;5054672;28;20028;-73
2023/06/13 11:04:19;;;;;;;10.75;2.97;;;;;;;-144.73;34.05;53997.22;5069239;28;20020;-73
2023/06/13 11:06:47;;;;;;;9.73;3.10;;;;;;;-144.73;34.26;53968.50;5050493;28;20109;-73
2023/06/13 11:09:25;;;;;;;6.97;2.90;;;;;;;-144.73;33.74;53964.38;5050814;28;20048;-73
2023/06/13 11:11:55;;;;;;;6.65;3.33;;;;;;;-144.73;33.85;53976.69;5062468;28;20429;-73
2023/06/13 11:14:31;;;;;;;14.93;3.67;;;;;;;-144.73;32.53;54079.31;5052152;28;20024;-73
2023/06/13 11:16:57;;;;;;;14.25;3.58;;;;;;;-144.73;33.72;54079.31;5045163;28;20067;-73